createdAt,value
2019-02-14T00:01:32.723Z,2.54
2019-02-14T00:04:01.582Z,2.51
2019-02-14T00:06:30.961Z,2.41
2019-02-14T00:08:59.238Z,2.35
2019-02-14T00:11:27.264Z,2.31
2019-02-14T00:13:55.493Z,2.25
2019-02-14T00:16:24.015Z,2.24
2019-02-14T00:18:52.535Z,2.23
2019-02-14T00:21:20.675Z,2.23
2019-02-14T00:23:48.663Z,1.68
2019-02-14T00:26:16.600Z,2.23
2019-02-14T00:28:44.817Z,1.99
2019-02-14T00:31:13.048Z,2.21
2019-02-14T00:33:41.671Z,2.21
2019-02-14T00:36:10.177Z,2.22
2019-02-14T00:38:38.724Z,2.19
2019-02-14T00:41:06.986Z,2.21
2019-02-14T00:43:34.777Z,2.18
2019-02-14T00:46:03.002Z,2.11
2019-02-14T00:48:30.797Z,1.84
2019-02-14T00:50:59.079Z,2.04
2019-02-14T00:53:27.248Z,2.01
2019-02-14T00:55:55.487Z,1.98
2019-02-14T00:58:23.664Z,1.97
2019-02-14T01:00:51.872Z,1.94
2019-02-14T01:03:20.358Z,1.90
2019-02-14T01:05:48.280Z,1.83
2019-02-14T01:08:16.613Z,1.80
2019-02-14T01:10:44.801Z,1.79
2019-02-14T01:13:12.597Z,1.77
2019-02-14T01:15:41.193Z,1.76
2019-02-14T01:18:09.180Z,1.72
2019-02-14T01:20:37.856Z,1.68
2019-02-14T01:23:06.380Z,1.63
2019-02-14T01:25:35.390Z,1.58
2019-02-14T01:28:04.152Z,1.58
2019-02-14T01:30:32.105Z,1.54
2019-02-14T01:33:00.080Z,1.55
2019-02-14T01:35:29.543Z,1.50
2019-02-14T01:37:57.802Z,1.52
2019-02-14T01:40:25.965Z,1.48
2019-02-14T01:42:54.790Z,1.36
2019-02-14T01:45:23.513Z,1.47
2019-02-14T01:47:51.438Z,1.44
2019-02-14T01:50:19.684Z,-0.39
2019-02-14T01:52:47.916Z,1.40
2019-02-14T01:55:16.551Z,1.40
2019-02-14T01:57:44.324Z,1.38
2019-02-14T02:00:14.107Z,0.20
2019-02-14T02:02:43.037Z,1.42
2019-02-14T02:05:11.086Z,1.41
2019-02-14T02:07:39.017Z,1.45
2019-02-14T02:10:09.942Z,1.45
2019-02-14T02:12:37.809Z,1.44
2019-02-14T02:15:07.865Z,1.43
2019-02-14T02:17:37.419Z,1.43
2019-02-14T02:20:06.299Z,1.41
2019-02-14T02:22:34.910Z,1.40
2019-02-14T02:25:03.436Z,1.39
2019-02-14T02:27:31.638Z,1.38
2019-02-14T02:30:00.077Z,1.23
2019-02-14T02:32:28.101Z,1.30
2019-02-14T02:34:56.230Z,1.30
2019-02-14T02:37:24.838Z,1.28
2019-02-14T02:39:52.909Z,1.27
2019-02-14T02:42:21.360Z,1.28
2019-02-14T02:44:50.016Z,1.27
2019-02-14T02:47:18.070Z,1.25
2019-02-14T02:49:46.108Z,1.23
2019-02-14T02:52:14.692Z,1.21
2019-02-14T02:54:42.815Z,1.18
2019-02-14T02:57:11.782Z,1.22
2019-02-14T02:59:41.112Z,0.97
2019-02-14T03:02:11.152Z,1.19
2019-02-14T03:04:39.926Z,1.18
2019-02-14T03:07:08.341Z,1.19
2019-02-14T03:09:36.935Z,1.18
2019-02-14T03:12:05.258Z,1.16
2019-02-14T03:14:33.801Z,1.00
2019-02-14T03:17:02.930Z,1.17
2019-02-14T03:19:31.097Z,1.17
2019-02-14T03:21:59.107Z,1.18
2019-02-14T03:24:28.136Z,1.15
2019-02-14T03:26:57.007Z,1.16
2019-02-14T03:29:25.778Z,1.14
2019-02-14T03:31:53.971Z,1.10
2019-02-14T03:34:21.952Z,0.27
2019-02-14T03:36:50.537Z,1.08
2019-02-14T03:39:20.596Z,-1.18
2019-02-14T03:41:48.512Z,1.07
2019-02-14T03:44:16.968Z,0.93
2019-02-14T03:46:44.784Z,0.90
2019-02-14T03:49:12.587Z,1.01
2019-02-14T03:51:41.175Z,1.00
2019-02-14T03:54:09.532Z,0.83
2019-02-14T03:56:37.966Z,1.01
2019-02-14T03:59:06.721Z,-1.08
2019-02-14T04:01:34.643Z,1.01
2019-02-14T04:04:03.718Z,1.02
2019-02-14T04:06:31.761Z,1.01
2019-02-14T04:08:59.831Z,1.01
2019-02-14T04:11:27.653Z,1.01
2019-02-14T04:13:56.151Z,1.01
2019-02-14T04:16:24.370Z,1.01
2019-02-14T04:18:52.583Z,0.99
2019-02-14T04:21:21.874Z,-0.71
2019-02-14T04:23:50.101Z,0.75
2019-02-14T04:26:18.492Z,0.80
2019-02-14T04:28:47.296Z,0.92
2019-02-14T04:31:15.476Z,0.92
2019-02-14T04:33:43.584Z,0.92
2019-02-14T04:36:12.212Z,0.92
2019-02-14T04:38:40.486Z,0.92
2019-02-14T04:41:08.593Z,-0.39
2019-02-14T04:43:38.849Z,0.88
2019-02-14T04:46:09.080Z,0.63
2019-02-14T04:48:36.849Z,0.77
2019-02-14T04:51:05.318Z,0.89
2019-02-14T04:53:33.493Z,0.90
2019-02-14T04:56:01.761Z,0.90
2019-02-14T04:58:30.397Z,0.88
2019-02-14T05:00:58.663Z,0.88
2019-02-14T05:03:26.598Z,0.88
2019-02-14T05:05:55.574Z,0.86
2019-02-14T05:08:23.555Z,0.82
2019-02-14T05:11:16.671Z,0.79
2019-02-14T05:13:46.459Z,0.76
2019-02-14T05:16:14.426Z,0.74
2019-02-14T05:18:42.718Z,0.75
2019-02-14T05:21:11.512Z,0.21
2019-02-14T05:23:39.432Z,0.73
2019-02-14T05:26:07.686Z,0.72
2019-02-14T05:28:36.491Z,0.71
2019-02-14T05:31:05.457Z,-0.56
2019-02-14T05:33:33.447Z,0.54
2019-02-14T05:36:02.168Z,0.68
2019-02-14T05:38:30.511Z,0.67
2019-02-14T05:40:58.563Z,0.03
2019-02-14T05:43:26.548Z,0.65
2019-02-14T05:45:54.347Z,0.65
2019-02-14T05:48:22.525Z,0.65
2019-02-14T05:50:50.729Z,0.65
2019-02-14T05:53:18.462Z,0.65
2019-02-14T05:55:46.937Z,0.65
2019-02-14T05:58:15.181Z,0.65
2019-02-14T06:00:43.001Z,0.66
2019-02-14T06:03:10.932Z,0.67
2019-02-14T06:05:39.396Z,0.66
2019-02-14T06:08:07.629Z,0.65
2019-02-14T06:10:36.009Z,0.64
2019-02-14T06:13:04.370Z,0.63
2019-02-14T06:15:34.302Z,0.61
2019-02-14T06:18:03.134Z,0.59
2019-02-14T06:20:31.156Z,0.55
2019-02-14T06:22:58.905Z,0.59
2019-02-14T06:25:27.385Z,0.47
2019-02-14T06:27:56.851Z,0.58
2019-02-14T06:30:25.815Z,0.58
2019-02-14T06:32:54.338Z,0.08
2019-02-14T06:35:23.055Z,-0.05
2019-02-14T06:37:53.125Z,0.61
2019-02-14T06:40:22.152Z,0.62
2019-02-14T06:42:50.136Z,0.13
2019-02-14T06:45:18.442Z,0.67
2019-02-14T06:47:46.728Z,0.71
2019-02-14T06:50:14.821Z,0.72
2019-02-14T06:52:43.069Z,0.61
2019-02-14T06:55:11.028Z,0.75
2019-02-14T06:57:39.897Z,-0.79
2019-02-14T07:00:10.662Z,0.54
2019-02-14T07:02:38.598Z,0.81
2019-02-14T07:05:07.270Z,0.83
2019-02-14T07:07:36.902Z,0.68
2019-02-14T07:10:07.270Z,0.87
2019-02-14T07:12:35.797Z,0.87
2019-02-14T07:15:03.956Z,0.87
2019-02-14T07:17:31.968Z,0.86
2019-02-14T07:20:00.495Z,0.74
2019-02-14T07:22:28.324Z,-0.06
2019-02-14T07:24:56.654Z,0.92
2019-02-14T07:27:24.862Z,0.59
2019-02-14T07:29:53.256Z,0.98
2019-02-14T07:32:22.538Z,1.01
2019-02-14T07:34:50.729Z,1.02
2019-02-14T07:37:26.383Z,1.06
2019-02-14T07:39:47.771Z,1.11
2019-02-14T07:42:15.963Z,1.12
2019-02-14T07:44:44.453Z,1.20
2019-02-14T07:47:12.221Z,1.24
2019-02-14T07:49:40.204Z,1.30
2019-02-14T07:52:08.314Z,1.23
2019-02-14T07:54:36.110Z,1.15
2019-02-14T07:57:05.496Z,1.40
2019-02-14T07:59:33.746Z,1.47
2019-02-14T08:02:03.630Z,1.53
2019-02-14T08:04:33.223Z,1.62
2019-02-14T08:07:01.048Z,1.69
2019-02-14T08:09:29.199Z,1.76
2019-02-14T08:11:57.001Z,1.82
2019-02-14T08:14:24.957Z,0.76
2019-02-14T08:16:53.674Z,1.92
2019-02-14T08:19:23.185Z,0.12
2019-02-14T08:21:52.528Z,2.07
2019-02-14T08:24:21.987Z,2.13
2019-02-14T08:26:50.351Z,2.17
2019-02-14T08:29:18.202Z,1.98
2019-02-14T08:31:46.071Z,2.29
2019-02-14T08:34:14.795Z,1.98
2019-02-14T08:36:43.199Z,2.39
2019-02-14T08:39:11.416Z,2.36
2019-02-14T08:41:39.226Z,2.51
2019-02-14T08:44:07.236Z,2.59
2019-02-14T08:46:35.272Z,2.53
2019-02-14T08:49:03.753Z,2.72
2019-02-14T08:51:32.629Z,2.60
2019-02-14T08:54:00.059Z,2.85
2019-02-14T08:56:29.253Z,2.88
2019-02-14T08:58:57.249Z,2.87
2019-02-14T09:01:25.094Z,3.17
2019-02-14T09:03:53.232Z,3.12
2019-02-14T09:06:21.091Z,3.46
2019-02-14T09:08:49.877Z,3.60
2019-02-14T09:11:17.609Z,3.76
2019-02-14T09:13:45.925Z,3.68
2019-02-14T09:16:13.857Z,3.86
2019-02-14T09:18:44.200Z,4.03
2019-02-14T09:21:15.735Z,3.92
2019-02-14T09:23:43.715Z,4.10
2019-02-14T09:26:13.432Z,3.38
2019-02-14T09:28:42.016Z,4.20
2019-02-14T09:31:09.801Z,4.29
2019-02-14T09:33:37.849Z,4.55
2019-02-14T09:36:06.006Z,4.73
2019-02-14T09:38:33.847Z,4.81
2019-02-14T09:41:04.606Z,4.80
2019-02-14T09:43:33.816Z,4.98
2019-02-14T09:46:02.741Z,5.01
2019-02-14T09:48:31.818Z,5.35
2019-02-14T09:50:59.646Z,5.53
2019-02-14T09:53:29.065Z,5.67
2019-02-14T09:55:59.439Z,5.78
2019-02-14T09:58:31.015Z,5.87
2019-02-14T10:00:59.293Z,5.77
2019-02-14T10:03:27.106Z,5.53
2019-02-14T10:05:55.806Z,5.63
2019-02-14T10:08:23.742Z,5.65
2019-02-14T10:10:51.506Z,5.81
2019-02-14T10:13:21.041Z,5.85
2019-02-14T10:19:06.939Z,5.77
2019-02-14T10:21:35.073Z,5.72
2019-02-14T10:24:03.110Z,5.58
2019-02-14T10:26:31.307Z,5.11
2019-02-14T10:28:59.058Z,5.56
2019-02-14T10:31:28.948Z,5.33
2019-02-14T10:33:57.172Z,5.63
2019-02-14T10:36:30.753Z,5.43
2019-02-14T10:38:58.524Z,5.45
2019-02-14T10:41:29.206Z,5.41
2019-02-14T10:43:54.957Z,5.91
2019-02-14T10:46:23.039Z,6.47
2019-02-14T10:48:51.306Z,6.91
2019-02-14T10:51:21.407Z,6.93
2019-02-14T10:53:50.856Z,7.49
2019-02-14T10:56:19.526Z,7.66
2019-02-14T10:58:47.298Z,7.75
2019-02-14T11:01:16.566Z,8.05
2019-02-14T11:03:44.603Z,8.05
2019-02-14T11:06:14.330Z,8.17
2019-02-14T11:08:43.556Z,8.65
2019-02-14T11:11:12.583Z,8.82
2019-02-14T11:13:40.761Z,9.17
2019-02-14T11:16:09.756Z,9.21
2019-02-14T11:18:43.917Z,9.25
2019-02-14T11:21:09.258Z,9.52
2019-02-14T11:23:37.525Z,9.58
2019-02-14T11:26:05.792Z,9.70
2019-02-14T11:28:34.320Z,9.73
2019-02-14T11:31:04.987Z,9.85
2019-02-14T11:33:33.247Z,10.11
2019-02-14T11:36:01.673Z,10.24
2019-02-14T11:38:29.679Z,10.17
2019-02-14T11:40:57.474Z,10.09
2019-02-14T11:43:29.451Z,9.83
2019-02-14T11:45:57.644Z,10.21
2019-02-14T11:48:26.092Z,10.35
2019-02-14T11:50:56.039Z,10.37
2019-02-14T11:53:26.618Z,10.17
2019-02-14T11:58:46.798Z,10.33
2019-02-14T12:01:14.702Z,10.34
2019-02-14T12:03:42.460Z,10.18
2019-02-14T12:06:17.332Z,10.02
2019-02-14T12:08:50.101Z,10.00
2019-02-14T12:11:10.069Z,9.51
2019-02-14T12:13:39.598Z,9.95
2019-02-14T12:16:08.266Z,10.05
2019-02-14T12:18:36.328Z,10.18
2019-02-14T12:21:04.224Z,10.35
2019-02-14T12:23:34.880Z,10.48
2019-02-14T12:26:05.504Z,9.34
2019-02-14T12:28:31.369Z,10.61
2019-02-14T12:30:59.227Z,10.81
2019-02-14T12:33:28.787Z,11.09
2019-02-14T12:35:56.699Z,10.99
2019-02-14T12:38:24.921Z,11.27
2019-02-14T12:40:52.887Z,10.51
2019-02-14T12:43:20.690Z,11.36
2019-02-14T12:45:51.970Z,11.39
2019-02-14T12:48:19.842Z,11.36
2019-02-14T12:50:50.479Z,11.14
2019-02-14T12:53:19.071Z,11.03
2019-02-14T12:55:47.906Z,10.83
2019-02-14T12:58:15.921Z,10.98
2019-02-14T13:00:44.508Z,10.75
2019-02-14T13:03:13.590Z,10.66
2019-02-14T13:05:42.107Z,10.70
2019-02-14T13:08:09.989Z,10.87
2019-02-14T13:10:37.834Z,11.03
2019-02-14T13:13:07.939Z,11.26
2019-02-14T13:15:35.981Z,11.48
2019-02-14T13:18:07.117Z,11.55
2019-02-14T13:20:40.686Z,11.49
2019-02-14T13:23:09.085Z,11.38
2019-02-14T13:25:37.532Z,10.99
2019-02-14T13:28:05.357Z,11.20
2019-02-14T13:30:33.405Z,11.18
2019-02-14T13:33:03.883Z,11.11
2019-02-14T13:35:31.733Z,11.05
2019-02-14T13:38:00.037Z,11.05
2019-02-14T13:40:30.005Z,10.98
2019-02-14T13:43:00.575Z,10.55
2019-02-14T13:45:29.418Z,10.89
2019-02-14T13:48:01.445Z,10.86
2019-02-14T13:50:30.557Z,10.88
2019-02-14T13:53:00.134Z,10.89
2019-02-14T13:55:28.435Z,10.91
2019-02-14T13:57:57.159Z,10.94
2019-02-14T14:00:30.011Z,10.98
2019-02-14T14:03:03.089Z,11.01
2019-02-14T14:05:35.560Z,9.49
2019-02-14T14:08:08.293Z,10.78
2019-02-14T14:10:36.848Z,11.10
2019-02-14T14:13:10.537Z,11.09
2019-02-14T14:15:39.514Z,11.06
2019-02-14T14:18:10.140Z,11.06
2019-02-14T14:20:38.541Z,11.07
2019-02-14T14:23:11.197Z,11.07
2019-02-14T14:25:40.433Z,11.09
2019-02-14T14:28:09.218Z,11.13
2019-02-14T14:30:41.232Z,11.13
2019-02-14T14:33:11.287Z,11.12
2019-02-14T14:35:39.659Z,11.11
2019-02-14T14:38:15.795Z,11.08
2019-02-14T14:40:44.447Z,11.08
2019-02-14T14:43:24.160Z,10.13
2019-02-14T14:46:06.662Z,11.06
2019-02-14T14:48:38.487Z,10.67
2019-02-14T14:51:07.767Z,11.05
2019-02-14T14:53:41.092Z,11.06
2019-02-14T14:56:08.406Z,11.06
2019-02-14T14:58:36.995Z,11.05
2019-02-14T15:01:05.702Z,11.05
2019-02-14T15:03:37.433Z,11.05
2019-02-14T15:06:07.133Z,11.02
2019-02-14T15:08:35.155Z,11.01
2019-02-14T15:11:06.636Z,9.77
2019-02-14T15:13:35.734Z,10.10
2019-02-14T15:16:06.783Z,10.79
2019-02-14T15:18:35.347Z,10.53
2019-02-14T15:21:04.640Z,10.88
2019-02-14T15:23:36.645Z,10.86
2019-02-14T15:26:05.633Z,10.84
2019-02-14T15:28:37.575Z,10.28
2019-02-14T15:31:14.674Z,9.90
2019-02-14T15:33:47.879Z,10.68
2019-02-14T15:36:22.126Z,10.65
2019-02-14T15:38:51.401Z,10.60
2019-02-14T15:41:23.626Z,10.58
2019-02-14T15:43:55.752Z,10.24
2019-02-14T15:46:23.766Z,10.50
2019-02-14T15:48:52.764Z,10.46
2019-02-14T15:51:25.056Z,10.27
2019-02-14T15:53:53.455Z,10.35
2019-02-14T15:56:21.421Z,10.29
2019-02-14T15:58:52.930Z,10.25
2019-02-14T16:01:20.301Z,10.19
2019-02-14T16:03:49.000Z,10.13
2019-02-14T16:06:20.515Z,9.98
2019-02-14T16:08:49.285Z,9.90
2019-02-14T16:11:17.287Z,9.96
2019-02-14T16:13:45.110Z,9.91
2019-02-14T16:16:13.484Z,9.84
2019-02-14T16:18:41.893Z,9.78
2019-02-14T16:21:09.916Z,9.71
2019-02-14T16:23:37.910Z,9.55
2019-02-14T16:26:06.987Z,9.59
2019-02-14T16:28:37.697Z,9.46
2019-02-14T16:31:05.063Z,9.51
2019-02-14T16:33:33.170Z,9.45
2019-02-14T16:36:01.163Z,9.37
2019-02-14T16:38:29.406Z,9.20
2019-02-14T16:40:57.347Z,9.23
2019-02-14T16:43:25.875Z,9.17
2019-02-14T16:45:53.881Z,9.12
2019-02-14T16:48:24.831Z,9.07
2019-02-14T16:50:57.330Z,8.99
2019-02-14T16:53:30.739Z,8.93
2019-02-14T16:56:02.201Z,8.88
2019-02-14T16:58:28.996Z,8.84
2019-02-14T17:00:57.317Z,8.78
2019-02-14T17:03:25.250Z,8.73
2019-02-14T17:05:53.330Z,8.69
2019-02-14T17:08:21.324Z,8.33
2019-02-14T17:10:49.614Z,8.60
2019-02-14T17:13:18.021Z,8.55
2019-02-14T17:15:47.758Z,8.50
2019-02-14T17:18:17.308Z,8.46
2019-02-14T17:20:45.857Z,8.41
2019-02-14T17:23:16.046Z,8.37
2019-02-14T17:25:44.614Z,8.30
2019-02-14T17:28:15.807Z,7.93
2019-02-14T17:30:46.594Z,8.17
2019-02-14T17:33:15.356Z,8.10
2019-02-14T17:35:47.015Z,8.05
2019-02-14T17:38:16.435Z,7.99
2019-02-14T17:40:46.427Z,7.54
2019-02-14T17:43:15.485Z,7.89
2019-02-14T17:45:44.891Z,7.83
2019-02-14T17:48:14.905Z,7.77
2019-02-14T17:50:45.399Z,7.68
2019-02-14T17:53:19.096Z,7.61
2019-02-14T17:55:49.661Z,7.55
2019-02-14T17:58:19.634Z,7.52
2019-02-14T18:00:47.507Z,7.45
2019-02-14T18:03:17.333Z,6.75
2019-02-14T18:05:46.637Z,7.36
2019-02-14T18:08:16.003Z,7.30
2019-02-14T18:10:45.548Z,7.27
2019-02-14T18:13:17.814Z,7.12
2019-02-14T18:15:48.641Z,5.87
2019-02-14T18:18:18.681Z,7.17
2019-02-14T18:20:49.647Z,7.12
2019-02-14T18:23:18.946Z,7.06
2019-02-14T18:25:47.753Z,7.00
2019-02-14T18:28:16.010Z,6.92
2019-02-14T18:30:44.345Z,6.85
2019-02-14T18:33:13.030Z,6.70
2019-02-14T18:35:40.858Z,6.76
2019-02-14T18:38:08.641Z,6.73
2019-02-14T18:40:36.462Z,6.70
2019-02-14T18:43:05.041Z,6.65
2019-02-14T18:45:33.301Z,6.61
2019-02-14T18:48:01.462Z,6.57
2019-02-14T18:50:29.530Z,6.54
2019-02-14T18:52:57.532Z,6.50
2019-02-14T18:55:25.917Z,6.47
2019-02-14T18:57:53.838Z,6.43
2019-02-14T19:00:22.486Z,6.37
2019-02-14T19:02:50.753Z,6.36
2019-02-14T19:05:18.629Z,6.32
2019-02-14T19:07:46.543Z,6.28
2019-02-14T19:10:14.908Z,6.24
2019-02-14T19:12:42.680Z,6.19
2019-02-14T19:15:10.981Z,6.16
2019-02-14T19:17:38.869Z,6.11
2019-02-14T19:20:07.414Z,6.07
2019-02-14T19:22:35.975Z,5.87
2019-02-14T19:25:05.007Z,5.97
2019-02-14T19:27:33.906Z,5.96
2019-02-14T19:30:02.723Z,5.92
2019-02-14T19:32:30.765Z,5.77
2019-02-14T19:34:58.988Z,5.85
2019-02-14T19:37:27.003Z,5.78
2019-02-14T19:39:55.466Z,5.80
2019-02-14T19:42:23.466Z,5.78
2019-02-14T19:44:51.303Z,5.75
2019-02-14T19:47:19.498Z,5.72
2019-02-14T19:49:47.477Z,5.67
2019-02-14T19:52:15.350Z,5.62
2019-02-14T19:54:43.204Z,5.56
2019-02-14T19:57:11.272Z,5.13
2019-02-14T19:59:39.518Z,4.86
2019-02-14T20:02:07.492Z,5.43
2019-02-14T20:04:35.483Z,5.41
2019-02-14T20:07:04.051Z,5.38
2019-02-14T20:09:31.937Z,5.33
2019-02-14T20:12:03.885Z,5.32
2019-02-14T20:14:32.012Z,5.27
2019-02-14T20:17:00.253Z,5.24
2019-02-14T20:19:28.910Z,5.17
2019-02-14T20:21:57.355Z,5.12
2019-02-14T20:24:26.656Z,5.06
2019-02-14T20:26:54.628Z,4.99
2019-02-14T20:29:22.490Z,4.95
2019-02-14T20:31:50.688Z,4.92
2019-02-14T20:34:18.506Z,4.87
2019-02-14T20:36:46.413Z,4.83
2019-02-14T20:39:16.799Z,4.79
2019-02-14T20:41:47.556Z,4.78
2019-02-14T20:44:15.874Z,4.77
2019-02-14T20:46:44.305Z,4.76
2019-02-14T20:49:12.184Z,4.48
2019-02-14T20:51:40.941Z,4.72
2019-02-14T20:54:09.501Z,4.07
2019-02-14T20:56:39.361Z,4.67
2019-02-14T20:59:08.075Z,4.66
2019-02-14T21:01:36.978Z,4.66
2019-02-14T21:04:05.434Z,4.53
2019-02-14T21:06:33.302Z,4.64
2019-02-14T21:09:03.174Z,3.79
2019-02-14T21:11:33.017Z,3.90
2019-02-14T21:14:01.123Z,4.57
2019-02-14T21:16:29.285Z,4.53
2019-02-14T21:19:01.010Z,4.49
2019-02-14T21:21:30.232Z,4.45
2019-02-14T21:24:04.700Z,4.42
2019-02-14T21:26:32.838Z,4.38
2019-02-14T21:29:01.891Z,4.14
2019-02-14T21:31:31.181Z,4.20
2019-02-14T21:34:01.729Z,4.05
2019-02-14T21:36:34.767Z,4.14
2019-02-14T21:39:10.199Z,3.99
2019-02-14T21:41:41.621Z,3.85
2019-02-14T21:44:13.041Z,3.84
2019-02-14T21:46:41.272Z,4.00
2019-02-14T21:49:11.178Z,3.62
2019-02-14T21:51:40.439Z,3.22
2019-02-14T21:54:11.419Z,3.87
2019-02-14T21:56:39.540Z,3.93
2019-02-14T21:59:08.453Z,3.29
2019-02-14T22:01:39.144Z,3.49
2019-02-14T22:04:12.213Z,3.85
2019-02-14T22:06:40.360Z,3.83
2019-02-14T22:09:09.116Z,3.59
2019-02-14T22:11:37.845Z,3.81
2019-02-14T22:14:06.126Z,3.57
2019-02-14T22:16:35.059Z,3.71
2019-02-14T22:19:04.061Z,3.81
2019-02-14T22:21:32.138Z,3.67
2019-02-14T22:24:00.368Z,3.29
2019-02-14T22:26:28.811Z,3.59
2019-02-14T22:28:57.119Z,3.68
2019-02-14T22:31:25.627Z,3.66
2019-02-14T22:33:54.783Z,3.65
2019-02-14T22:36:23.117Z,3.49
2019-02-14T22:38:54.551Z,3.58
2019-02-14T22:41:26.483Z,3.55
2019-02-14T22:43:54.766Z,3.50
2019-02-14T22:46:23.064Z,3.47
2019-02-14T22:48:52.167Z,3.43
2019-02-14T22:51:20.838Z,3.39
2019-02-14T22:53:49.624Z,3.35
2019-02-14T22:56:25.506Z,2.72
2019-02-14T22:58:56.245Z,3.02
2019-02-14T23:01:29.339Z,3.21
2019-02-14T23:03:57.628Z,3.15
2019-02-14T23:06:26.046Z,3.09
2019-02-14T23:08:55.093Z,3.03
2019-02-14T23:11:23.261Z,2.98
2019-02-14T23:13:51.738Z,2.80
2019-02-14T23:16:21.503Z,2.90
2019-02-14T23:18:53.287Z,2.75
2019-02-14T23:21:22.638Z,2.81
2019-02-14T23:23:52.200Z,2.75
2019-02-14T23:26:20.083Z,2.20
2019-02-14T23:28:48.344Z,2.42
2019-02-14T23:31:21.878Z,2.50
2019-02-14T23:33:50.096Z,2.43
2019-02-14T23:36:18.693Z,2.56
2019-02-14T23:38:46.583Z,2.51
2019-02-14T23:41:15.626Z,2.38
2019-02-14T23:43:43.937Z,2.28
2019-02-14T23:46:12.534Z,2.31
2019-02-14T23:48:41.259Z,2.42
2019-02-14T23:51:11.259Z,2.04
2019-02-14T23:53:43.467Z,2.30
2019-02-14T23:56:15.829Z,2.40
2019-02-14T23:58:44.981Z,2.38
